Time;durP1;ratioP1;P1;durP2;ratioP2;P2;SDS_P1;SDS_P2;PMS_P1;PMS_P2;Temp;Humidity;BMP_temperature;BMP_pressure;BME280_temperature;BME280_humidity;BME280_pressure;Samples;Min_cycle;Max_cycle;Signal;HPM_P1;HPM_P2
2022/11/24 00:04:31;;;;;;;6.60;4.70;;;;;;;2.29;100.00;97414.13;15272130;19;20015;-61
2022/11/24 00:09:59;;;;;;;6.22;4.30;;;;;;;2.30;100.00;97421.94;15273801;19;20091;-63
2022/11/24 00:15:24;;;;;;;5.35;4.40;;;;;;;2.29;100.00;97422.94;15279344;19;20091;-64
2022/11/24 00:20:48;;;;;;;7.82;4.60;;;;;;;2.28;100.00;97417.75;15272940;19;20420;-65
2022/11/24 00:26:17;;;;;;;6.15;4.53;;;;;;;2.27;100.00;97421.38;15280172;19;20369;-64
2022/11/24 00:31:43;;;;;;;7.03;4.60;;;;;;;2.22;100.00;97423.59;15273392;19;20018;-65
2022/11/24 00:37:08;;;;;;;7.50;4.75;;;;;;;2.19;100.00;97418.53;15270256;19;20087;-61
2022/11/24 00:42:35;;;;;;;7.35;4.85;;;;;;;2.16;100.00;97424.97;15273228;19;20018;-63
2022/11/24 00:48:00;;;;;;;8.80;5.28;;;;;;;2.17;100.00;97431.13;15270268;19;20023;-64
2022/11/24 00:53:25;;;;;;;10.73;5.53;;;;;;;2.15;100.00;97441.88;15274947;19;20380;-67
2022/11/24 00:58:52;;;;;;;10.43;5.10;;;;;;;2.17;100.00;97457.72;15279258;19;20018;-63
2022/11/24 01:04:17;;;;;;;7.15;5.82;;;;;;;2.19;100.00;97455.72;15274018;19;20078;-63
2022/11/24 01:09:44;;;;;;;9.57;6.25;;;;;;;2.24;100.00;97464.16;15268997;19;20014;-63
2022/11/24 01:15:13;;;;;;;9.30;6.10;;;;;;;2.27;100.00;97469.22;15270495;19;20041;-64
2022/11/24 01:20:39;;;;;;;7.75;5.97;;;;;;;2.33;100.00;97484.63;15272278;19;20029;-61
2022/11/24 01:26:03;;;;;;;9.00;6.20;;;;;;;2.39;100.00;97485.91;15276511;19;20014;-67
2022/11/24 01:31:31;;;;;;;6.78;5.95;;;;;;;2.43;100.00;97488.16;15269924;19;20486;-65
2022/11/24 01:36:56;;;;;;;9.10;6.60;;;;;;;2.49;100.00;97499.25;15268909;19;20094;-66
2022/11/24 01:42:21;;;;;;;7.50;5.82;;;;;;;2.54;100.00;97511.19;15270294;19;20078;-64
2022/11/24 01:47:49;;;;;;;8.25;5.93;;;;;;;2.67;100.00;97513.59;15280391;19;20777;-65
2022/11/24 01:53:15;;;;;;;7.63;6.03;;;;;;;2.74;100.00;97514.75;15283394;19;20097;-64
2022/11/24 01:58:42;;;;;;;7.30;6.05;;;;;;;2.81;100.00;97524.84;15291918;19;20019;-65
2022/11/24 02:04:14;;;;;;;10.90;6.10;;;;;;;2.91;100.00;97525.72;15283163;19;20105;-64
2022/11/24 02:09:51;;;;;;;6.40;5.57;;;;;;;2.98;100.00;97536.66;15282243;19;20021;-65
2022/11/24 02:15:16;;;;;;;8.73;5.95;;;;;;;3.01;100.00;97541.72;15282180;19;20018;-65
2022/11/24 02:20:44;;;;;;;7.20;5.90;;;;;;;3.05;100.00;97541.31;15283516;19;20074;-62
2022/11/24 02:26:15;;;;;;;7.63;5.75;;;;;;;3.06;100.00;97545.66;15287918;19;20531;-64
2022/11/24 02:31:43;;;;;;;8.55;6.10;;;;;;;3.07;100.00;97550.00;15281469;19;20407;-64
2022/11/24 02:37:08;;;;;;;7.72;6.20;;;;;;;3.08;100.00;97554.38;15279803;19;20488;-64
2022/11/24 02:42:36;;;;;;;7.03;6.30;;;;;;;3.10;100.00;97566.69;15284274;19;20412;-65
2022/11/24 02:48:04;;;;;;;8.45;7.18;;;;;;;3.11;100.00;97571.88;15276718;19;20026;-65
2022/11/24 02:53:28;;;;;;;9.68;7.15;;;;;;;3.12;100.00;97572.72;15281895;19;20074;-66
2022/11/24 02:58:53;;;;;;;8.05;6.70;;;;;;;3.11;100.00;97577.19;15285119;19;20011;-65
2022/11/24 03:04:20;;;;;;;8.15;7.05;;;;;;;3.08;100.00;97586.28;15279164;19;20376;-65
2022/11/24 03:09:46;;;;;;;8.27;7.07;;;;;;;3.09;100.00;97581.81;15278177;19;20037;-65
2022/11/24 03:15:10;;;;;;;8.60;7.22;;;;;;;3.11;100.00;97587.00;15280181;19;20014;-65
2022/11/24 03:20:39;;;;;;;10.15;7.70;;;;;;;3.12;100.00;97591.34;15279122;19;20116;-65
2022/11/24 03:26:03;;;;;;;8.18;6.70;;;;;;;3.15;100.00;97596.38;15283420;19;20018;-64
2022/11/24 03:31:28;;;;;;;9.13;7.18;;;;;;;3.17;100.00;97605.09;15276591;19;20018;-65
2022/11/24 03:36:55;;;;;;;7.70;6.90;;;;;;;3.21;100.00;97606.50;15275023;19;20014;-65
2022/11/24 03:42:20;;;;;;;7.47;6.50;;;;;;;3.22;100.00;97603.69;15278396;19;20018;-65
2022/11/24 03:47:44;;;;;;;7.13;6.38;;;;;;;3.26;100.00;97628.22;15274571;19;20100;-65
2022/11/24 03:53:12;;;;;;;7.45;6.65;;;;;;;3.28;100.00;97642.25;15278087;19;20014;-64
2022/11/24 03:58:37;;;;;;;7.85;6.40;;;;;;;3.30;100.00;97637.63;15281700;19;20019;-64
2022/11/24 04:04:08;;;;;;;8.05;6.70;;;;;;;3.32;100.00;97645.47;15274938;19;20007;-62
2022/11/24 04:09:42;;;;;;;8.40;6.70;;;;;;;3.33;100.00;97656.00;15274902;19;20355;-62
2022/11/24 04:15:08;;;;;;;8.48;6.78;;;;;;;3.35;100.00;97661.19;15275179;19;20014;-61
2022/11/24 04:20:34;;;;;;;7.28;6.57;;;;;;;3.36;100.00;97677.03;15275550;19;20130;-62
2022/11/24 04:26:02;;;;;;;8.15;6.25;;;;;;;3.38;100.00;97671.59;15271842;19;20029;-62
2022/11/24 04:31:27;;;;;;;7.25;6.55;;;;;;;3.38;100.00;97691.03;15272046;19;20013;-60
2022/11/24 04:36:52;;;;;;;8.13;6.28;;;;;;;3.43;100.00;97692.47;15278983;19;20482;-63
2022/11/24 04:42:19;;;;;;;6.32;5.55;;;;;;;3.43;100.00;97684.50;15273589;19;20018;-63
2022/11/24 04:47:43;;;;;;;7.97;5.53;;;;;;;3.44;100.00;97691.50;15267518;19;20019;-63
2022/11/24 04:53:08;;;;;;;5.38;4.68;;;;;;;3.44;100.00;97702.16;15273382;19;20624;-62
2022/11/24 04:58:37;;;;;;;5.28;4.50;;;;;;;3.46;100.00;97718.84;15278758;19;20451;-62
2022/11/24 05:04:03;;;;;;;4.55;4.15;;;;;;;3.48;100.00;97724.84;15276894;19;20018;-62
2022/11/24 05:10:33;;;;;;;6.03;3.95;;;;;;;3.52;100.00;97728.94;15270902;19;20358;-63
2022/11/24 05:15:21;;;;;;;4.63;3.38;;;;;;;3.54;100.00;97727.81;15271182;19;20010;-62
2022/11/24 05:20:46;;;;;;;3.50;3.20;;;;;;;3.59;100.00;97727.44;15269838;19;20018;-64
2022/11/24 05:26:11;;;;;;;3.67;3.28;;;;;;;3.62;100.00;97737.81;15274842;19;20018;-62
2022/11/24 05:31:38;;;;;;;4.55;3.03;;;;;;;3.64;100.00;97749.19;15269938;19;20106;-62
2022/11/24 05:37:03;;;;;;;4.85;2.80;;;;;;;3.67;100.00;97756.06;15271854;19;20015;-63
2022/11/24 05:48:10;;;;;;;4.70;2.80;;;;;;;3.71;100.00;97754.81;15262618;19;20018;-63
2022/11/24 05:53:34;;;;;;;4.90;2.75;;;;;;;3.74;100.00;97759.88;15270678;19;20014;-61
2022/11/24 05:58:59;;;;;;;3.53;2.47;;;;;;;3.76;100.00;97778.41;15275155;19;20028;-63
2022/11/24 06:04:29;;;;;;;3.92;2.60;;;;;;;3.77;100.00;97778.25;15269360;19;20081;-63
2022/11/24 06:10:00;;;;;;;2.40;2.17;;;;;;;3.79;100.00;97775.47;15265279;19;20500;-63
2022/11/24 06:15:25;;;;;;;3.63;2.23;;;;;;;3.79;100.00;97783.47;15273051;19;20078;-62
2022/11/24 06:20:52;;;;;;;4.75;2.20;;;;;;;3.79;100.00;97786.13;15264589;19;20026;-63
2022/11/24 06:26:28;;;;;;;4.10;2.20;;;;;;;3.79;100.00;97789.63;15271213;19;20032;-63
2022/11/24 06:31:52;;;;;;;2.15;1.73;;;;;;;3.79;100.00;97802.13;14764112;19;10000407;-62
2022/11/24 06:37:19;;;;;;;5.18;1.77;;;;;;;3.81;100.00;97800.16;15279706;19;20022;-63
2022/11/24 06:42:45;;;;;;;5.13;2.10;;;;;;;3.83;100.00;97808.84;15281731;19;20416;-63
2022/11/24 06:48:10;;;;;;;5.35;2.33;;;;;;;3.84;100.00;97808.72;15278970;19;20255;-62
2022/11/24 06:53:38;;;;;;;6.07;2.20;;;;;;;3.87;100.00;97812.94;15281789;19;20014;-63
2022/11/24 06:59:04;;;;;;;6.65;2.20;;;;;;;3.92;100.00;97817.84;15287251;19;20074;-63
2022/11/24 07:04:28;;;;;;;6.70;2.38;;;;;;;3.95;100.00;97818.44;15279326;19;20460;-61
2022/11/24 07:10:02;;;;;;;11.43;2.28;;;;;;;3.97;100.00;97820.97;15276484;19;20021;-60
2022/11/24 07:15:27;;;;;;;8.38;2.30;;;;;;;3.98;100.00;97826.16;15279053;19;20014;-62
2022/11/24 07:20:51;;;;;;;5.70;2.40;;;;;;;4.01;100.00;97839.22;15278047;19;20020;-62
2022/11/24 07:26:20;;;;;;;6.78;2.50;;;;;;;4.04;100.00;97840.78;15282400;19;20074;-63
2022/11/24 07:31:44;;;;;;;6.35;2.67;;;;;;;4.06;100.00;97846.00;15277627;19;20351;-62
2022/11/24 07:37:10;;;;;;;8.43;2.70;;;;;;;4.11;100.00;97857.94;15284589;19;20014;-61
2022/11/24 07:42:37;;;;;;;6.55;2.83;;;;;;;4.14;100.00;97857.66;15275073;19;20011;-63
2022/11/24 07:48:02;;;;;;;8.30;2.58;;;;;;;4.19;100.00;97862.56;15274627;19;20011;-63
2022/11/24 07:53:26;;;;;;;6.15;2.70;;;;;;;4.26;100.00;97877.06;15279078;19;20357;-63
2022/11/24 07:58:53;;;;;;;5.07;2.50;;;;;;;4.30;100.00;97886.47;15285460;19;20479;-63
2022/11/24 08:04:18;;;;;;;8.20;2.85;;;;;;;4.37;100.00;97883.28;15281715;19;20093;-63
2022/11/24 08:09:49;;;;;;;7.22;2.97;;;;;;;4.41;100.00;97887.38;15271802;19;20033;-63
2022/11/24 08:15:16;;;;;;;5.67;2.27;;;;;;;4.48;100.00;97888.50;15277671;19;20090;-63
2022/11/24 08:20:42;;;;;;;7.10;2.20;;;;;;;4.57;100.00;97889.53;15275229;19;20025;-63
2022/11/24 08:26:09;;;;;;;6.30;2.17;;;;;;;4.68;100.00;97888.53;15281359;19;20022;-63
2022/11/24 08:31:37;;;;;;;6.22;2.30;;;;;;;4.77;100.00;97903.72;15276285;19;20375;-62
2022/11/24 08:37:02;;;;;;;7.68;2.25;;;;;;;4.87;100.00;97904.63;15283729;19;20014;-62
2022/11/24 08:42:26;;;;;;;7.55;2.30;;;;;;;4.98;100.00;97897.47;15279044;19;20028;-63
2022/11/24 08:47:56;;;;;;;5.65;2.08;;;;;;;5.08;100.00;97900.97;15293469;19;20006;-63
2022/11/24 08:53:21;;;;;;;4.50;1.67;;;;;;;5.17;100.00;97900.13;15295897;19;20459;-63
2022/11/24 08:58:46;;;;;;;7.07;2.15;;;;;;;5.28;100.00;97911.66;15272561;19;20271;-63
2022/11/24 09:04:13;;;;;;;5.63;1.60;;;;;;;5.38;100.00;97909.84;15271595;19;20021;-63
2022/11/24 09:09:44;;;;;;;6.85;1.90;;;;;;;5.50;100.00;97911.38;15267568;19;20093;-63
2022/11/24 09:15:09;;;;;;;4.83;1.53;;;;;;;5.62;100.00;97917.44;15271007;19;20015;-65
2022/11/24 09:20:37;;;;;;;6.38;1.60;;;;;;;5.73;100.00;97921.75;15270230;19;20007;-63
2022/11/24 09:26:05;;;;;;;6.88;1.88;;;;;;;5.83;100.00;97927.09;15276089;19;20074;-62
2022/11/24 09:31:33;;;;;;;3.92;1.60;;;;;;;5.95;100.00;97919.75;15273194;19;20018;-63
2022/11/24 09:37:00;;;;;;;6.93;1.55;;;;;;;6.06;100.00;97926.81;15272767;19;20011;-64
2022/11/24 09:42:36;;;;;;;4.93;1.73;;;;;;;6.14;100.00;97918.88;15269534;19;20367;-64
2022/11/24 09:48:14;;;;;;;4.65;1.50;;;;;;;6.24;100.00;97916.19;15263057;19;20014;-61
2022/11/24 09:53:46;;;;;;;6.78;1.60;;;;;;;6.30;100.00;97902.22;15270403;19;20018;-64
2022/11/24 09:59:18;;;;;;;4.47;1.40;;;;;;;6.37;100.00;97908.69;15270517;19;20018;-64
2022/11/24 10:04:49;;;;;;;7.15;1.88;;;;;;;6.46;100.00;97899.75;15269095;19;20021;-64
2022/11/24 10:10:26;;;;;;;3.87;1.60;;;;;;;6.57;100.00;97898.72;15284460;19;20354;-63
2022/11/24 10:15:59;;;;;;;3.90;1.70;;;;;;;6.72;100.00;97900.88;15282573;19;20036;-63
2022/11/24 10:21:49;;;;;;;7.50;1.70;;;;;;;6.75;100.00;97901.47;15282091;19;20764;-64
2022/11/24 10:27:19;;;;;;;4.65;1.50;;;;;;;6.80;100.00;97890.28;15287213;19;20094;-63
2022/11/24 10:32:49;;;;;;;5.83;1.80;;;;;;;6.93;100.00;97889.91;15282127;19;20081;-63
2022/11/24 10:38:34;;;;;;;7.80;2.15;;;;;;;7.05;100.00;97880.66;15278319;19;20029;-64
2022/11/24 10:44:01;;;;;;;5.65;1.90;;;;;;;7.18;100.00;97884.81;15283107;19;20082;-64
2022/11/24 10:49:29;;;;;;;6.50;1.95;;;;;;;7.28;100.00;97882.06;15278066;19;20474;-63
2022/11/24 10:55:06;;;;;;;6.90;2.03;;;;;;;7.34;100.00;97879.59;15277638;19;20015;-63
2022/11/24 11:00:35;;;;;;;6.63;1.90;;;;;;;7.43;100.00;97883.19;15280994;19;20029;-62
2022/11/24 11:06:03;;;;;;;5.97;1.98;;;;;;;7.52;100.00;97884.09;15280860;19;20558;-63
2022/11/24 11:11:31;;;;;;;5.80;1.90;;;;;;;7.60;100.00;97886.00;15283863;19;20029;-63
2022/11/24 11:17:04;;;;;;;5.80;1.63;;;;;;;7.68;100.00;97883.38;15283925;19;20022;-65
2022/11/24 11:22:31;;;;;;;5.72;1.90;;;;;;;7.74;100.00;97895.31;15280382;19;20029;-62
2022/11/24 11:27:56;;;;;;;5.55;1.80;;;;;;;7.77;100.00;97897.69;15283111;19;20561;-62
2022/11/24 11:33:31;;;;;;;5.90;1.77;;;;;;;7.76;100.00;97896.84;15279519;19;20022;-62
2022/11/24 11:39:29;;;;;;;9.77;1.98;;;;;;;7.80;100.00;97889.34;15277834;19;20026;-62
2022/11/24 11:44:59;;;;;;;8.38;2.10;;;;;;;7.89;100.00;97901.81;15276569;19;20029;-62
2022/11/24 11:50:32;;;;;;;12.60;2.17;;;;;;;7.94;100.00;97901.34;15280311;19;20463;-63
2022/11/24 11:56:26;;;;;;;6.30;1.80;;;;;;;7.96;100.00;97905.53;15276718;19;20421;-62
2022/11/24 12:02:19;;;;;;;5.50;1.83;;;;;;;8.02;100.00;97904.91;15280547;19;20014;-63
2022/11/24 12:07:58;;;;;;;;;;;;;;;7.99;100.00;97905.22;15274323;19;20073;-63
2022/11/24 12:13:51;;;;;;;6.20;1.80;;;;;;;8.09;100.00;97905.13;15277397;19;19943;-61
2022/11/24 12:19:29;;;;;;;6.90;2.50;;;;;;;8.11;100.00;97907.63;15275500;19;20019;-62
2022/11/24 12:25:03;;;;;;;6.25;1.98;;;;;;;8.13;100.00;97917.19;15272328;19;20022;-63
2022/11/24 12:30:39;;;;;;;7.60;2.03;;;;;;;8.20;100.00;97916.59;15275322;19;20019;-62
2022/11/24 12:36:10;;;;;;;9.88;1.90;;;;;;;8.21;100.00;97919.09;15273569;19;20050;-62
2022/11/24 12:41:56;;;;;;;4.50;1.60;;;;;;;8.24;100.00;97924.16;15275438;19;20024;-62
2022/11/24 12:47:26;;;;;;;7.65;2.03;;;;;;;8.35;100.00;97922.19;15278249;19;20607;-62
2022/11/24 12:52:59;;;;;;;5.93;2.08;;;;;;;8.40;100.00;97923.41;15274390;19;20063;-62
2022/11/24 12:58:38;;;;;;;6.50;2.05;;;;;;;8.50;100.00;97917.97;15277118;19;20457;-62
2022/11/24 13:04:15;;;;;;;8.35;2.47;;;;;;;8.51;100.00;97906.22;15273914;19;20039;-62
2022/11/24 13:09:39;;;;;;;8.55;2.28;;;;;;;8.59;100.00;97905.38;15270654;19;20014;-63
2022/11/24 13:15:17;;;;;;;8.20;2.20;;;;;;;8.52;100.00;97917.78;15270936;19;20045;-62
2022/11/24 13:21:03;;;;;;;7.82;2.20;;;;;;;8.61;100.00;97925.72;15274110;19;20026;-62
2022/11/24 13:26:33;;;;;;;7.45;2.13;;;;;;;8.61;100.00;97925.72;15277197;19;20471;-62
2022/11/24 13:32:01;;;;;;;11.88;2.30;;;;;;;8.67;100.00;97936.81;15271301;19;20025;-62
2022/11/24 13:37:50;;;;;;;7.55;1.95;;;;;;;8.52;100.00;97933.91;15271956;19;20014;-62
2022/11/24 13:43:22;;;;;;;7.13;1.90;;;;;;;8.47;100.00;97937.03;15286820;19;20026;-62
2022/11/24 13:49:09;;;;;;;8.02;2.05;;;;;;;8.40;100.00;97944.88;15285790;19;20030;-63
2022/11/24 13:54:34;;;;;;;7.60;2.25;;;;;;;8.38;100.00;97956.78;15283153;19;20020;-64
2022/11/24 13:59:59;;;;;;;7.55;2.25;;;;;;;8.34;100.00;97956.25;15288199;19;20019;-60
2022/11/24 14:05:39;;;;;;;6.57;2.00;;;;;;;8.19;100.00;97955.97;15286253;19;20789;-61
2022/11/24 14:11:19;;;;;;;8.40;1.92;;;;;;;8.14;100.00;97969.03;15286559;19;20022;-61
2022/11/24 14:16:45;;;;;;;6.17;1.87;;;;;;;8.15;100.00;97968.88;15284378;19;20010;-62
2022/11/24 14:22:12;;;;;;;6.30;1.90;;;;;;;8.11;100.00;97980.94;15283459;19;20019;-64
2022/11/24 14:27:39;;;;;;;7.68;2.03;;;;;;;8.02;100.00;97984.53;15286011;19;20014;-62
2022/11/24 14:33:05;;;;;;;4.93;1.50;;;;;;;7.92;100.00;97990.00;15279887;19;20022;-63
2022/11/24 14:38:40;;;;;;;8.95;2.10;;;;;;;7.84;100.00;97993.47;15284719;19;20019;-64
2022/11/24 14:44:07;;;;;;;6.00;1.80;;;;;;;7.85;100.00;97999.66;15280305;19;20027;-64
2022/11/24 14:49:32;;;;;;;5.75;1.90;;;;;;;7.80;100.00;97992.06;15283983;19;20024;-64
2022/11/24 14:55:02;;;;;;;8.57;2.33;;;;;;;7.76;100.00;97996.06;15276220;19;20034;-64
2022/11/24 15:00:41;;;;;;;6.28;2.40;;;;;;;7.70;100.00;98018.97;15284054;19;20035;-64
2022/11/24 15:06:17;;;;;;;7.18;2.80;;;;;;;7.61;100.00;98027.09;15283080;19;20022;-64
2022/11/24 15:11:44;;;;;;;8.30;2.67;;;;;;;7.56;100.00;98041.78;15279378;19;20019;-64
2022/11/24 15:17:09;;;;;;;7.82;2.30;;;;;;;7.47;100.00;98049.88;15278699;19;20021;-64
2022/11/24 15:22:44;;;;;;;10.98;2.72;;;;;;;7.39;100.00;98054.16;15279631;19;20025;-64
2022/11/24 15:28:13;;;;;;;8.60;3.22;;;;;;;7.34;100.00;98077.91;15279877;19;20077;-65
2022/11/24 15:33:38;;;;;;;8.63;3.15;;;;;;;7.28;100.00;98073.13;15275747;19;20377;-64
2022/11/24 15:39:03;;;;;;;7.65;2.65;;;;;;;7.23;100.00;98080.78;15277583;19;20028;-56
2022/11/24 15:44:31;;;;;;;5.50;2.20;;;;;;;7.18;100.00;98083.06;15274686;19;20022;-64
2022/11/24 15:49:56;;;;;;;8.27;2.20;;;;;;;7.11;100.00;98082.81;15278820;19;20041;-63
2022/11/24 15:55:25;;;;;;;9.52;2.80;;;;;;;7.13;100.00;98079.97;15274323;19;20033;-64
2022/11/24 16:00:52;;;;;;;7.22;2.80;;;;;;;7.12;100.00;98086.31;15279779;19;20018;-63
2022/11/24 16:06:21;;;;;;;8.85;2.83;;;;;;;7.13;100.00;98102.25;15271482;19;20018;-64
2022/11/24 16:11:46;;;;;;;11.35;6.30;;;;;;;7.11;100.00;98109.59;15271711;19;20014;-64
2022/11/24 16:17:13;;;;;;;21.70;14.63;;;;;;;7.08;100.00;98113.41;15270092;19;20018;-64
2022/11/24 16:22:38;;;;;;;23.00;13.75;;;;;;;7.02;100.00;98107.78;15268685;19;20022;-66
2022/11/24 16:28:02;;;;;;;12.88;6.93;;;;;;;6.93;100.00;98128.25;15273613;19;20349;-66
2022/11/24 16:33:30;;;;;;;12.98;4.47;;;;;;;6.84;100.00;98127.28;15269730;19;20018;-64
2022/11/24 16:38:54;;;;;;;10.80;3.45;;;;;;;6.78;100.00;98138.59;15271434;19;20531;-64
2022/11/24 16:44:19;;;;;;;8.60;3.30;;;;;;;6.69;100.00;98137.59;15269335;19;20046;-64
2022/11/24 16:49:46;;;;;;;8.88;3.70;;;;;;;6.62;100.00;98145.38;15270868;19;20022;-64
2022/11/24 16:55:13;;;;;;;8.75;3.38;;;;;;;6.59;100.00;98142.13;15262020;19;20357;-65
2022/11/24 17:00:37;;;;;;;9.60;3.30;;;;;;;6.56;100.00;98137.06;15272473;19;20019;-65
2022/11/24 17:06:06;;;;;;;8.50;3.10;;;;;;;6.53;100.00;98142.69;15268845;19;20024;-62
2022/11/24 17:11:33;;;;;;;9.32;2.85;;;;;;;6.50;100.00;98149.19;15270670;19;20078;-64
2022/11/24 17:16:58;;;;;;;7.43;2.70;;;;;;;6.51;100.00;98160.75;15265612;19;20358;-64
2022/11/24 17:22:25;;;;;;;7.38;3.30;;;;;;;6.50;100.00;98164.41;15268831;19;20018;-62
2022/11/24 17:27:50;;;;;;;11.85;5.50;;;;;;;6.50;100.00;98169.75;15263838;19;20362;-64
2022/11/24 17:33:16;;;;;;;12.15;5.82;;;;;;;6.52;100.00;98179.34;15267630;19;20022;-66
2022/11/24 17:38:44;;;;;;;8.75;4.63;;;;;;;6.55;100.00;98180.88;15265297;19;20029;-63
2022/11/24 17:44:09;;;;;;;8.25;3.40;;;;;;;6.54;100.00;98171.16;15267939;19;20018;-65
2022/11/24 17:49:34;;;;;;;5.90;3.40;;;;;;;6.53;100.00;98175.66;15271164;19;20019;-61
2022/11/24 17:55:01;;;;;;;8.07;3.13;;;;;;;6.56;100.00;98190.59;15265683;19;20026;-65
2022/11/24 18:00:26;;;;;;;8.75;3.72;;;;;;;6.55;100.00;98196.94;15258315;19;20594;-65
2022/11/24 18:05:50;;;;;;;6.30;3.13;;;;;;;6.51;100.00;98192.88;15267313;19;20024;-65
2022/11/24 18:11:26;;;;;;;6.60;3.08;;;;;;;6.53;100.00;98198.91;15264633;19;20841;-64
2022/11/24 18:16:51;;;;;;;8.30;3.38;;;;;;;6.50;100.00;98201.88;15237840;19;20036;-62
2022/11/24 18:22:16;;;;;;;7.25;3.40;;;;;;;6.50;100.00;98212.59;15262567;19;20746;-65
2022/11/24 18:28:05;;;;;;;5.78;2.92;;;;;;;6.48;100.00;98213.56;15271401;19;20015;-64
2022/11/24 18:33:29;;;;;;;5.50;2.65;;;;;;;6.48;100.00;98220.72;15274643;19;20032;-62
2022/11/24 18:38:54;;;;;;;5.07;2.38;;;;;;;6.45;100.00;98219.19;15272031;19;20078;-60
2022/11/24 18:44:21;;;;;;;5.72;2.33;;;;;;;6.42;100.00;98222.13;15274339;19;20496;-62
2022/11/24 18:49:46;;;;;;;7.55;2.72;;;;;;;6.42;100.00;98226.66;15276495;19;20022;-62
2022/11/24 18:55:10;;;;;;;5.95;2.40;;;;;;;6.40;100.00;98220.59;15275623;19;20015;-62
2022/11/24 19:00:38;;;;;;;5.65;2.40;;;;;;;6.35;100.00;98225.53;15270021;19;20039;-61
2022/11/24 19:06:02;;;;;;;6.90;2.20;;;;;;;6.35;100.00;98226.38;15274193;19;20019;-60
2022/11/24 19:11:35;;;;;;;4.13;2.00;;;;;;;6.36;100.00;98230.72;15277857;19;20022;-61
2022/11/24 19:17:05;;;;;;;5.45;2.00;;;;;;;6.36;100.00;98233.41;15267982;19;20015;-60
2022/11/24 19:22:30;;;;;;;5.30;2.10;;;;;;;6.34;100.00;98237.22;15271852;19;20034;-60
2022/11/24 19:27:55;;;;;;;4.72;2.00;;;;;;;6.30;100.00;98240.16;15271499;19;20466;-60
2022/11/24 19:33:23;;;;;;;4.13;1.85;;;;;;;6.27;100.00;98244.94;15269297;19;20015;-61
2022/11/24 19:38:52;;;;;;;6.07;2.20;;;;;;;6.13;100.00;98243.50;15270170;19;20019;-62
2022/11/24 19:44:18;;;;;;;6.30;2.20;;;;;;;6.11;100.00;98257.00;15270489;19;20026;-62
2022/11/24 19:49:46;;;;;;;4.93;2.05;;;;;;;6.00;100.00;98267.81;15273075;19;20029;-61
2022/11/24 19:55:10;;;;;;;6.22;2.10;;;;;;;5.96;100.00;98269.03;15262765;19;20018;-65
2022/11/24 20:00:35;;;;;;;5.53;2.17;;;;;;;5.97;100.00;98281.44;15268086;19;20025;-64
2022/11/24 20:06:05;;;;;;;3.97;1.95;;;;;;;5.96;100.00;98290.44;15269191;19;20019;-64
2022/11/24 20:11:37;;;;;;;6.90;2.13;;;;;;;5.96;100.00;98290.44;15275243;19;20022;-64
2022/11/24 20:17:03;;;;;;;3.13;1.73;;;;;;;5.94;100.00;98289.75;15271465;19;20017;-65
2022/11/24 20:22:30;;;;;;;5.32;1.95;;;;;;;5.89;100.00;98289.28;15274096;19;20491;-64
2022/11/24 20:27:55;;;;;;;4.15;1.90;;;;;;;5.86;100.00;98288.56;15271171;19;20074;-63
2022/11/24 20:33:19;;;;;;;4.05;1.90;;;;;;;5.83;100.00;98294.19;15271484;19;20021;-63
2022/11/24 20:38:47;;;;;;;4.97;1.80;;;;;;;5.82;100.00;98302.34;15262793;19;20025;-66
2022/11/24 20:44:14;;;;;;;4.90;1.95;;;;;;;5.83;100.00;98301.38;15268736;19;20025;-65
2022/11/24 20:49:39;;;;;;;3.80;1.60;;;;;;;5.79;100.00;98299.94;15270258;19;20042;-62
2022/11/24 20:55:06;;;;;;;4.47;1.77;;;;;;;5.77;100.00;98292.06;15266080;19;20074;-65
2022/11/24 21:00:31;;;;;;;4.32;1.60;;;;;;;5.77;100.00;98296.53;15266736;19;20014;-62
2022/11/24 21:06:02;;;;;;;3.63;1.70;;;;;;;5.76;100.00;98302.91;15270312;19;20041;-64
2022/11/24 21:11:36;;;;;;;3.97;1.53;;;;;;;5.74;100.00;98303.00;15263867;19;20019;-64
2022/11/24 21:17:01;;;;;;;5.30;1.90;;;;;;;5.72;100.00;98304.97;15268793;19;20082;-64
2022/11/24 21:22:25;;;;;;;4.22;1.70;;;;;;;5.70;100.00;98307.78;15267450;19;20023;-64
2022/11/24 21:27:53;;;;;;;4.30;1.83;;;;;;;5.67;100.00;98308.03;15269151;19;20527;-64
2022/11/24 21:33:18;;;;;;;3.13;1.85;;;;;;;5.67;100.00;98310.72;15265417;19;20018;-65
2022/11/24 21:38:44;;;;;;;4.03;1.70;;;;;;;5.68;100.00;98312.41;15268301;19;20015;-64
2022/11/24 21:44:12;;;;;;;3.60;1.73;;;;;;;5.69;100.00;98315.94;15260652;19;20011;-65
2022/11/24 21:49:37;;;;;;;4.63;1.90;;;;;;;5.66;100.00;98310.84;15267293;19;20471;-63
2022/11/24 21:55:01;;;;;;;4.25;1.90;;;;;;;5.67;100.00;98315.22;15266231;19;20381;-65
2022/11/24 22:00:30;;;;;;;6.00;2.00;;;;;;;5.66;100.00;98321.53;15268014;19;20010;-64
2022/11/24 22:06:00;;;;;;;4.75;1.90;;;;;;;5.65;100.00;98319.84;15283217;19;20024;-65
2022/11/24 22:11:33;;;;;;;5.20;2.10;;;;;;;5.67;100.00;98323.25;15279825;19;20024;-64
2022/11/24 22:17:01;;;;;;;5.28;2.30;;;;;;;5.66;100.00;98326.88;15275386;19;20070;-62
2022/11/24 22:22:25;;;;;;;4.82;2.20;;;;;;;5.65;100.00;98330.53;15281510;19;20026;-66
2022/11/24 22:27:50;;;;;;;7.05;2.08;;;;;;;5.66;100.00;98348.28;15280523;19;20015;-67
2022/11/24 22:33:18;;;;;;;4.90;2.08;;;;;;;5.68;100.00;98346.31;15278099;19;20025;-65
2022/11/24 22:38:44;;;;;;;5.63;2.00;;;;;;;5.69;100.00;98340.84;15277025;19;20019;-65
2022/11/24 22:44:08;;;;;;;5.25;1.88;;;;;;;5.70;100.00;98339.84;15279315;19;20310;-63
2022/11/24 22:49:36;;;;;;;4.80;2.00;;;;;;;5.71;100.00;98346.03;15276780;19;20019;-65
2022/11/24 22:55:00;;;;;;;4.25;1.88;;;;;;;5.71;100.00;98351.38;15278914;19;20028;-64
2022/11/24 23:00:25;;;;;;;5.75;2.10;;;;;;;5.70;100.00;98355.06;15281333;19;20015;-65
2022/11/24 23:05:52;;;;;;;5.50;1.75;;;;;;;5.67;100.00;98344.63;15281702;19;20018;-64
2022/11/24 23:11:25;;;;;;;4.15;1.70;;;;;;;5.64;100.00;98352.91;15275702;19;20021;-64
2022/11/24 23:16:55;;;;;;;4.53;1.58;;;;;;;5.61;100.00;98359.38;15275173;19;20027;-64
2022/11/24 23:22:22;;;;;;;5.22;2.00;;;;;;;5.61;100.00;98358.50;15276752;19;20025;-64
2022/11/24 23:27:48;;;;;;;5.63;1.90;;;;;;;5.60;100.00;98354.13;15279884;19;20025;-63
2022/11/24 23:33:12;;;;;;;4.65;1.83;;;;;;;5.51;100.00;98351.28;15276833;19;20019;-65
2022/11/24 23:38:40;;;;;;;4.55;1.80;;;;;;;5.44;100.00;98343.91;15274968;19;20023;-64
2022/11/24 23:44:04;;;;;;;5.47;2.10;;;;;;;5.38;100.00;98347.94;15277431;19;20010;-61
2022/11/24 23:49:31;;;;;;;6.28;2.10;;;;;;;5.32;100.00;98351.16;15278116;19;20385;-63
2022/11/24 23:54:59;;;;;;;5.60;1.85;;;;;;;5.23;100.00;98342.91;15275159;19;20007;-65
